createdAt,value
2018-04-28T00:02:50.743Z,2.30
2018-04-28T00:06:55.039Z,2.30
2018-04-28T00:10:57.655Z,2.07
2018-04-28T00:15:00.175Z,2.23
2018-04-28T00:19:06.331Z,2.07
2018-04-28T00:23:11.365Z,2.00
2018-04-28T00:32:00.616Z,2.10
2018-04-28T00:36:08.859Z,2.10
2018-04-28T00:40:23.047Z,2.00
2018-04-28T00:44:25.940Z,1.90
2018-04-28T00:48:30.094Z,2.47
2018-04-28T00:52:33.579Z,2.20
2018-04-28T00:56:36.093Z,2.03
2018-04-28T01:00:56.531Z,2.00
2018-04-28T01:04:59.190Z,2.07
2018-04-28T01:09:01.730Z,2.07
2018-04-28T01:13:08.100Z,2.30
2018-04-28T01:17:25.646Z,2.10
2018-04-28T01:21:37.763Z,2.30
2018-04-28T01:25:57.394Z,1.90
2018-04-28T01:34:37.163Z,1.90
2018-04-28T01:38:40.390Z,2.03
2018-04-28T01:47:23.660Z,2.20
2018-04-28T01:51:32.194Z,2.23
2018-04-28T01:55:50.399Z,2.00
2018-04-28T02:00:00.795Z,2.07
2018-04-28T02:04:14.823Z,1.87
2018-04-28T02:08:17.542Z,2.60
2018-04-28T02:12:31.711Z,2.50
2018-04-28T02:16:37.950Z,3.30
2018-04-28T02:20:52.283Z,2.80
2018-04-28T02:25:16.134Z,2.47
2018-04-28T02:29:22.003Z,2.50
2018-04-28T02:33:25.325Z,2.60
2018-04-28T02:42:04.286Z,2.17
2018-04-28T02:46:09.407Z,1.97
2018-04-28T02:50:21.763Z,2.27
2018-04-28T02:54:26.070Z,1.80
2018-04-28T02:58:34.179Z,1.80
2018-04-28T03:02:40.223Z,2.10
2018-04-28T03:11:13.275Z,1.73
2018-04-28T03:15:16.942Z,2.00
2018-04-28T03:19:20.214Z,2.20
2018-04-28T03:23:27.383Z,1.67
2018-04-28T03:32:10.092Z,2.20
2018-04-28T03:36:14.283Z,2.10
2018-04-28T03:40:16.814Z,1.70
2018-04-28T03:49:11.234Z,2.10
2018-04-28T03:53:32.275Z,2.67
2018-04-28T03:57:47.528Z,2.37
2018-04-28T04:02:01.826Z,2.60
2018-04-28T04:06:09.644Z,2.17
2018-04-28T04:10:29.826Z,1.93
2018-04-28T04:19:38.152Z,1.70
2018-04-28T04:23:52.451Z,1.90
2018-04-28T04:32:31.367Z,2.33
2018-04-28T04:36:49.290Z,2.20
2018-04-28T04:40:58.670Z,2.40
2018-04-28T04:45:07.932Z,2.37
2018-04-28T04:49:19.497Z,2.47
2018-04-28T04:58:05.318Z,2.10
2018-04-28T05:02:30.234Z,3.00
2018-04-28T05:06:51.271Z,2.70
2018-04-28T05:11:16.238Z,2.00
2018-04-28T05:15:35.153Z,2.07
2018-04-28T05:19:44.502Z,2.57
2018-04-28T05:24:13.626Z,2.27
2018-04-28T05:28:27.975Z,2.20
2018-04-28T05:37:20.867Z,2.17
2018-04-28T05:41:36.172Z,2.40
2018-04-28T05:46:00.251Z,2.13
2018-04-28T05:50:28.130Z,2.30
2018-04-28T05:59:36.046Z,2.70
2018-04-28T06:08:41.031Z,2.53
2018-04-28T06:12:48.099Z,2.23
2018-04-28T06:21:33.094Z,2.07
2018-04-28T06:25:35.730Z,2.37
2018-04-28T06:29:38.262Z,2.17
2018-04-28T06:33:41.582Z,2.17
2018-04-28T06:37:44.143Z,2.40
2018-04-28T06:41:46.823Z,2.40
2018-04-28T06:45:49.341Z,2.20
2018-04-28T06:49:51.882Z,2.73
2018-04-28T06:53:54.398Z,2.50
2018-04-28T06:57:57.271Z,2.57
2018-04-28T07:01:59.777Z,2.50
2018-04-28T07:06:03.431Z,1.70
2018-04-28T07:10:06.098Z,2.43
2018-04-28T07:14:11.913Z,2.73
2018-04-28T07:18:17.579Z,2.03
2018-04-28T07:22:20.121Z,2.03
2018-04-28T07:26:23.639Z,1.97
2018-04-28T07:30:40.703Z,2.43
2018-04-28T07:34:43.419Z,1.87
2018-04-28T07:38:50.927Z,1.97
2018-04-28T07:42:53.446Z,2.27
2018-04-28T07:46:56.750Z,2.03
2018-04-28T07:51:02.254Z,2.10
2018-04-28T07:55:10.367Z,2.17
2018-04-28T07:59:12.887Z,2.50
2018-04-28T08:03:19.015Z,2.20
2018-04-28T08:07:22.466Z,2.00
2018-04-28T08:11:25.185Z,2.30
2018-04-28T08:15:28.159Z,2.03
2018-04-28T08:19:30.831Z,2.20
2018-04-28T08:23:33.353Z,1.77
2018-04-28T08:27:36.790Z,2.40
2018-04-28T08:31:39.322Z,1.97
2018-04-28T08:35:46.270Z,2.23
2018-04-28T08:39:57.011Z,1.43
2018-04-28T08:43:59.659Z,1.57
2018-04-28T08:48:02.182Z,1.90
2018-04-28T08:52:04.726Z,1.37
2018-04-28T08:56:07.390Z,1.83
2018-04-28T09:00:21.778Z,1.57
2018-04-28T09:04:28.346Z,1.40
2018-04-28T09:08:30.899Z,1.13
2018-04-28T09:12:35.402Z,1.20
2018-04-28T09:16:37.961Z,1.17
2018-04-28T09:20:41.265Z,1.20
2018-04-28T09:24:45.808Z,1.27
2018-04-28T09:28:48.322Z,1.30
2018-04-28T09:32:50.866Z,1.00
2018-04-28T09:36:53.471Z,1.33
2018-04-28T09:40:56.861Z,1.13
2018-04-28T09:44:59.384Z,1.00
2018-04-28T09:49:11.779Z,1.20
2018-04-28T09:53:16.569Z,0.90
2018-04-28T09:57:19.123Z,1.93
2018-04-28T10:01:21.643Z,1.23
2018-04-28T10:05:24.193Z,1.60
2018-04-28T10:09:27.470Z,2.00
2018-04-28T10:13:47.453Z,1.77
2018-04-28T10:17:49.987Z,2.10
2018-04-28T10:21:52.535Z,1.93
2018-04-28T10:25:55.052Z,1.50
2018-04-28T10:30:08.387Z,1.70
2018-04-28T10:34:14.462Z,1.27
2018-04-28T10:38:17.007Z,1.30
2018-04-28T10:42:19.551Z,1.40
2018-04-28T10:46:22.443Z,1.53
2018-04-28T10:50:30.885Z,1.60
2018-04-28T10:54:34.428Z,1.90
2018-04-28T10:58:37.731Z,1.63
2018-04-28T11:02:40.453Z,1.43
2018-04-28T11:06:52.710Z,1.67
2018-04-28T11:10:56.027Z,1.13
2018-04-28T11:14:59.310Z,2.10
2018-04-28T11:19:03.167Z,1.67
2018-04-28T11:23:05.675Z,1.50
2018-04-28T11:27:08.235Z,1.60
2018-04-28T11:31:10.747Z,1.50
2018-04-28T11:35:13.286Z,1.40
2018-04-28T11:39:15.810Z,1.90
2018-04-28T11:43:19.121Z,1.50
2018-04-28T11:47:22.403Z,1.30
2018-04-28T11:51:25.035Z,1.37
2018-04-28T11:55:37.511Z,1.30
2018-04-28T11:59:41.216Z,1.40
2018-04-28T12:03:43.739Z,4.00
2018-04-28T12:07:50.659Z,1.17
2018-04-28T12:11:53.196Z,1.30
2018-04-28T12:16:00.035Z,2.13
2018-04-28T12:20:02.550Z,3.43
2018-04-28T12:24:05.958Z,2.10
2018-04-28T12:28:08.467Z,1.37
2018-04-28T12:32:11.093Z,1.50
2018-04-28T12:36:14.375Z,1.30
2018-04-28T12:40:16.931Z,1.67
2018-04-28T12:44:20.215Z,1.77
2018-04-28T12:48:23.088Z,1.40
2018-04-28T12:52:25.658Z,1.40
2018-04-28T12:56:28.300Z,1.70
2018-04-28T13:00:30.820Z,1.90
2018-04-28T13:04:33.368Z,1.30
2018-04-28T13:08:35.922Z,1.10
2018-04-28T13:12:38.464Z,1.77
2018-04-28T13:16:40.983Z,1.40
2018-04-28T13:20:51.150Z,1.40
2018-04-28T13:24:53.663Z,1.40
2018-04-28T13:28:56.214Z,1.60
2018-04-28T13:32:59.487Z,1.50
2018-04-28T13:37:02.329Z,1.37
2018-04-28T13:41:04.870Z,1.43
2018-04-28T13:45:10.911Z,1.87
2018-04-28T13:49:13.431Z,1.90
2018-04-28T13:53:17.026Z,1.33
2018-04-28T13:57:19.543Z,1.37
2018-04-28T14:01:29.610Z,1.57
2018-04-28T14:05:32.122Z,1.60
2018-04-28T14:09:53.742Z,1.50
2018-04-28T14:13:57.179Z,1.47
2018-04-28T14:18:00.512Z,1.50
2018-04-28T14:22:03.036Z,1.33
2018-04-28T14:26:05.617Z,1.47
2018-04-28T14:30:08.144Z,1.33
2018-04-28T14:34:17.731Z,1.30
2018-04-28T14:38:26.723Z,1.30
2018-04-28T14:42:40.144Z,1.47
2018-04-28T14:47:05.917Z,1.20
2018-04-28T14:51:09.557Z,1.40
2018-04-28T14:55:12.867Z,1.37
2018-04-28T14:59:16.275Z,1.10
2018-04-28T15:03:23.767Z,1.40
2018-04-28T15:07:29.909Z,1.43
2018-04-28T15:11:33.207Z,1.20
2018-04-28T15:15:35.839Z,1.43
2018-04-28T15:19:39.126Z,1.50
2018-04-28T15:23:41.773Z,1.20
2018-04-28T15:27:45.064Z,1.10
2018-04-28T15:31:47.635Z,1.47
2018-04-28T15:35:50.230Z,1.53
2018-04-28T15:39:52.795Z,1.67
2018-04-28T15:43:55.324Z,1.30
2018-04-28T15:47:58.656Z,1.30
2018-04-28T15:52:01.957Z,1.20
2018-04-28T15:56:04.561Z,1.57
2018-04-28T16:00:09.097Z,1.30
2018-04-28T16:04:35.520Z,1.30
2018-04-28T16:08:38.059Z,1.20
2018-04-28T16:12:40.695Z,1.40
2018-04-28T16:16:46.534Z,1.70
2018-04-28T16:20:49.080Z,1.50
2018-04-28T16:24:51.600Z,1.40
2018-04-28T16:28:55.255Z,1.80
2018-04-28T16:32:57.860Z,1.50
2018-04-28T16:37:02.454Z,1.50
2018-04-28T16:41:08.615Z,2.00
2018-04-28T16:45:12.105Z,1.50
2018-04-28T16:49:16.972Z,1.37
2018-04-28T16:53:20.297Z,1.50
2018-04-28T16:57:23.622Z,2.00
2018-04-28T17:01:26.946Z,1.90
2018-04-28T17:05:30.598Z,1.80
2018-04-28T17:09:34.110Z,1.43
2018-04-28T17:13:37.388Z,1.20
2018-04-28T17:17:53.210Z,1.40
2018-04-28T17:21:55.742Z,2.67
2018-04-28T17:25:58.445Z,1.40
2018-04-28T17:30:01.120Z,1.30
2018-04-28T17:34:03.746Z,1.60
2018-04-28T17:38:06.267Z,2.10
2018-04-28T17:42:08.862Z,4.30
2018-04-28T17:46:12.368Z,2.10
2018-04-28T17:50:14.932Z,1.63
2018-04-28T17:54:17.507Z,1.23
2018-04-28T17:58:20.368Z,1.37
2018-04-28T18:02:22.924Z,1.40
2018-04-28T18:06:25.503Z,1.47
2018-04-28T18:10:30.115Z,1.70
2018-04-28T18:14:32.775Z,1.40
2018-04-28T18:18:39.637Z,1.63
2018-04-28T18:22:51.693Z,1.37
2018-04-28T18:27:00.485Z,1.30
2018-04-28T18:31:03.164Z,1.47
2018-04-28T18:35:05.889Z,1.30
2018-04-28T18:39:10.302Z,1.53
2018-04-28T18:43:13.869Z,1.43
2018-04-28T18:47:16.899Z,1.67
2018-04-28T18:51:22.597Z,3.00
2018-04-28T18:55:26.676Z,3.33
2018-04-28T18:59:29.571Z,2.60
2018-04-28T19:03:32.170Z,2.17
2018-04-28T19:07:36.714Z,2.47
2018-04-28T19:11:40.670Z,2.30
2018-04-28T19:15:43.354Z,2.00
2018-04-28T19:19:46.985Z,2.60
2018-04-28T19:23:53.783Z,2.43
2018-04-28T19:27:56.883Z,2.17
2018-04-28T19:31:59.680Z,2.00
2018-04-28T19:36:02.624Z,2.47
2018-04-28T19:40:06.319Z,2.33
2018-04-28T19:44:12.238Z,3.07
2018-04-28T19:48:14.818Z,2.50
2018-04-28T19:52:23.171Z,2.20
2018-04-28T19:56:25.812Z,2.10
2018-04-28T20:00:29.758Z,2.00
2018-04-28T20:04:32.338Z,2.00
2018-04-28T20:08:34.931Z,2.13
2018-04-28T20:12:38.525Z,2.20
2018-04-28T20:16:41.844Z,2.60
2018-04-28T20:20:44.536Z,2.13
2018-04-28T20:24:58.894Z,2.30
2018-04-28T20:29:02.480Z,2.00
2018-04-28T20:33:06.103Z,2.30
2018-04-28T20:37:08.692Z,2.10
2018-04-28T20:41:15.370Z,2.07
2018-04-28T20:45:18.000Z,2.00
2018-04-28T20:49:21.662Z,2.27
2018-04-28T20:53:24.244Z,1.93
2018-04-28T20:57:27.215Z,2.60
2018-04-28T21:01:29.815Z,2.33
2018-04-28T21:05:37.004Z,2.03
2018-04-28T21:09:39.624Z,2.10
2018-04-28T21:13:42.196Z,2.17
2018-04-28T21:17:45.520Z,2.03
2018-04-28T21:21:50.191Z,2.13
2018-04-28T21:25:53.512Z,1.97
2018-04-28T21:29:56.135Z,3.60
2018-04-28T21:33:59.908Z,2.00
2018-04-28T21:38:02.749Z,2.03
2018-04-28T21:42:05.287Z,1.80
2018-04-28T21:46:08.868Z,1.83
2018-04-28T21:50:11.383Z,2.17
2018-04-28T21:54:14.008Z,2.13
2018-04-28T21:58:17.324Z,2.37
2018-04-28T22:02:20.256Z,2.03
2018-04-28T22:06:23.546Z,1.80
2018-04-28T22:10:26.148Z,2.03
2018-04-28T22:14:32.935Z,1.90
2018-04-28T22:18:40.904Z,2.40
2018-04-28T22:22:43.418Z,2.07
2018-04-28T22:26:46.054Z,2.00
2018-04-28T22:30:48.568Z,2.20
2018-04-28T22:34:57.179Z,3.33
2018-04-28T22:38:59.694Z,2.33
2018-04-28T22:43:02.344Z,2.23
2018-04-28T22:47:04.858Z,2.23
2018-04-28T22:51:07.508Z,2.30
2018-04-28T22:55:10.794Z,2.77
2018-04-28T22:59:13.458Z,2.80
2018-04-28T23:03:15.963Z,2.80
2018-04-28T23:07:28.223Z,2.20
2018-04-28T23:11:30.749Z,2.40
2018-04-28T23:15:36.778Z,2.80
2018-04-28T23:19:47.274Z,2.60
2018-04-28T23:23:49.840Z,2.63
2018-04-28T23:27:52.347Z,2.40
2018-04-28T23:31:54.882Z,2.73
2018-04-28T23:35:58.171Z,2.50
2018-04-28T23:40:00.719Z,2.77
2018-04-28T23:44:09.581Z,2.50
2018-04-28T23:48:12.227Z,2.83
2018-04-28T23:52:14.745Z,2.87
2018-04-28T23:56:17.411Z,2.27
